Time;durP1;ratioP1;P1;durP2;ratioP2;P2;SDS_P1;SDS_P2;PMS_P1;PMS_P2;Temp;Humidity;BMP_temperature;BMP_pressure;BME280_temperature;BME280_humidity;BME280_pressure;Samples;Min_cycle;Max_cycle;Signal;HPM_P1;HPM_P2
2022/10/15 00:01:21;;;;;;;19.87;17.73;;;13.00;99.90;;;;;;4999823;28;20755;-64
2022/10/15 00:03:48;;;;;;;20.37;18.17;;;13.00;99.90;;;;;;5015453;28;20209;-64
2022/10/15 00:06:18;;;;;;;20.47;17.70;;;12.90;99.90;;;;;;5013734;28;20217;-64
2022/10/15 00:08:46;;;;;;;19.17;17.17;;;12.90;1.00;;;;;;4982388;28;20778;-64
2022/10/15 00:11:19;;;;;;;20.43;18.17;;;12.80;1.00;;;;;;4999095;28;20205;-64
2022/10/15 00:13:47;;;;;;;23.00;19.83;;;12.80;1.00;;;;;;4999149;28;20189;-64
2022/10/15 00:16:19;;;;;;;23.63;17.93;;;12.80;1.00;;;;;;4999481;28;20244;-64
2022/10/15 00:18:46;;;;;;;23.23;19.33;;;12.80;1.00;;;;;;5000767;28;20255;-64
2022/10/15 00:21:15;;;;;;;22.03;19.70;;;12.70;99.90;;;;;;5030738;28;20703;-66
2022/10/15 00:23:43;;;;;;;25.53;21.67;;;12.70;1.00;;;;;;4996118;28;20237;-64
2022/10/15 00:26:16;;;;;;;24.27;19.77;;;12.70;1.00;;;;;;5014163;28;20201;-65
2022/10/15 00:28:44;;;;;;;23.43;20.27;;;12.70;99.90;;;;;;5027771;28;20656;-65
2022/10/15 00:31:16;;;;;;;22.17;19.23;;;12.70;99.90;;;;;;5022938;28;20227;-65
2022/10/15 00:33:48;;;;;;;22.40;18.53;;;12.50;1.00;;;;;;5006351;28;20229;-64
2022/10/15 00:36:18;;;;;;;22.17;18.77;;;12.40;1.00;;;;;;5014986;28;20201;-64
2022/10/15 00:38:45;;;;;;;23.00;18.10;;;12.40;1.00;;;;;;4997619;28;20216;-64
2022/10/15 00:41:19;;;;;;;33.60;19.50;;;12.30;1.00;;;;;;5014462;28;20610;-64
2022/10/15 00:43:51;;;;;;;22.13;18.13;;;12.30;87.50;;;;;;5031471;28;20284;-64
2022/10/15 00:46:32;;;;;;;21.87;17.50;;;12.20;99.90;;;;;;5014509;28;20204;-66
2022/10/15 00:49:22;;;;;;;40.20;17.97;;;12.20;99.90;;;;;;4995060;28;20553;-66
2022/10/15 00:52:04;;;;;;;117.30;20.77;;;12.20;1.00;;;;;;4997988;28;20197;-65
2022/10/15 00:54:39;;;;;;;64.47;19.53;;;12.20;99.90;;;;;;5031661;28;20291;-64
2022/10/15 00:57:08;;;;;;;78.30;19.90;;;12.20;15.60;;;;;;5005137;28;20643;-64
2022/10/15 00:59:40;;;;;;;30.20;18.80;;;12.20;99.90;;;;;;4997937;28;20599;-64
2022/10/15 01:02:09;;;;;;;24.77;18.87;;;12.20;1.00;;;;;;4998935;28;20209;-65
2022/10/15 01:04:37;;;;;;;22.23;18.30;;;12.20;99.90;;;;;;4995796;28;20190;-65
2022/10/15 01:07:04;;;;;;;24.73;18.33;;;12.10;99.90;;;;;;5012292;28;20456;-65
2022/10/15 01:09:32;;;;;;;24.50;19.60;;;12.00;99.90;;;;;;5005705;28;20198;-64
2022/10/15 01:11:59;;;;;;;24.07;19.33;;;12.00;99.90;;;;;;5030584;28;20532;-64
2022/10/15 01:14:39;;;;;;;21.60;18.47;;;12.00;99.90;;;;;;5029943;28;20661;-65
2022/10/15 01:17:28;;;;;;;25.07;19.53;;;11.90;99.90;;;;;;5029308;28;20201;-64
2022/10/15 01:20:07;;;;;;;21.70;17.97;;;11.80;99.90;;;;;;5029143;28;20208;-64
2022/10/15 01:22:50;;;;;;;25.13;17.47;;;11.80;99.90;;;;;;5031295;28;20225;-64
2022/10/15 01:25:51;;;;;;;25.30;17.73;;;11.90;99.90;;;;;;5029574;28;20219;-67
2022/10/15 01:28:39;;;;;;;20.67;16.80;;;11.80;1.00;;;;;;4998118;28;20201;-66
2022/10/15 01:31:20;;;;;;;22.27;17.10;;;11.80;1.00;;;;;;5029525;28;20680;-66
2022/10/15 01:34:20;;;;;;;29.97;18.73;;;11.90;1.00;;;;;;5010889;28;20222;-66
2022/10/15 01:37:10;;;;;;;25.37;18.83;;;12.00;1.00;;;;;;5003969;28;20209;-64
2022/10/15 01:39:53;;;;;;;23.17;18.13;;;12.10;1.00;;;;;;5030180;28;20236;-65
2022/10/15 01:42:55;;;;;;;22.23;17.57;;;12.10;1.00;;;;;;4995118;28;20221;-65
2022/10/15 01:45:42;;;;;;;22.07;18.57;;;12.20;1.00;;;;;;5004640;28;20295;-64
2022/10/15 01:48:23;;;;;;;24.90;19.27;;;12.30;1.00;;;;;;5004859;28;20201;-65
2022/10/15 01:50:54;;;;;;;25.57;19.77;;;12.40;1.00;;;;;;5030274;28;20262;-65
2022/10/15 01:53:25;;;;;;;22.10;18.77;;;12.40;1.00;;;;;;4995609;28;20193;-65
2022/10/15 01:55:57;;;;;;;26.53;18.60;;;12.50;1.00;;;;;;5010319;28;20201;-64
2022/10/15 01:58:25;;;;;;;21.20;17.93;;;12.50;1.00;;;;;;5014085;28;20213;-65
2022/10/15 02:00:54;;;;;;;20.30;16.67;;;12.60;1.00;;;;;;4997271;28;20197;-63
2022/10/15 02:03:21;;;;;;;19.30;17.20;;;12.60;99.90;;;;;;4998426;28;20297;-63
2022/10/15 02:06:12;;;;;;;23.20;17.87;;;12.60;99.90;;;;;;5004655;28;20245;-66
2022/10/15 02:09:14;;;;;;;21.70;17.43;;;12.60;1.00;;;;;;5012647;28;20263;-64
2022/10/15 02:11:55;;;;;;;19.03;17.03;;;12.50;99.90;;;;;;5012894;28;20201;-65
2022/10/15 02:14:38;;;;;;;22.27;18.47;;;12.60;99.90;;;;;;5014259;28;20201;-64
2022/10/15 02:17:10;;;;;;;20.17;16.80;;;12.60;1.00;;;;;;5012327;28;20202;-65
2022/10/15 02:19:50;;;;;;;19.97;17.53;;;12.70;1.00;;;;;;5013419;28;20207;-64
2022/10/15 02:22:23;;;;;;;18.27;16.27;;;12.70;99.90;;;;;;4996728;28;20229;-64
2022/10/15 02:25:04;;;;;;;18.93;16.43;;;12.70;16.90;;;;;;4997504;28;20742;-65
2022/10/15 02:27:33;;;;;;;20.30;17.30;;;12.70;1.00;;;;;;4981679;28;20701;-65
2022/10/15 02:30:03;;;;;;;17.43;15.67;;;12.70;1.00;;;;;;5029934;28;20197;-67
2022/10/15 02:32:34;;;;;;;20.27;16.53;;;12.70;1.00;;;;;;4998140;28;20887;-68
2022/10/15 02:35:02;;;;;;;20.53;16.37;;;12.80;99.90;;;;;;5026104;28;20212;-68
2022/10/15 02:37:30;;;;;;;18.60;16.60;;;12.80;99.90;;;;;;4995049;28;20208;-68
2022/10/15 02:39:57;;;;;;;18.90;16.60;;;12.80;99.90;;;;;;4998177;28;20284;-67
2022/10/15 02:42:24;;;;;;;18.97;16.43;;;12.80;1.00;;;;;;5012929;28;20219;-68
2022/10/15 02:44:52;;;;;;;18.80;16.67;;;12.90;1.00;;;;;;5004139;28;20201;-68
2022/10/15 02:47:19;;;;;;;18.63;16.67;;;12.90;1.00;;;;;;5011756;28;20656;-68
2022/10/15 02:49:47;;;;;;;17.67;15.80;;;12.90;1.00;;;;;;5016033;28;20690;-68
2022/10/15 02:52:14;;;;;;;18.13;16.33;;;12.90;1.00;;;;;;5017537;28;20235;-67
2022/10/15 02:54:44;;;;;;;18.43;16.63;;;12.80;99.90;;;;;;5016750;28;20288;-67
2022/10/15 02:57:11;;;;;;;18.53;16.63;;;12.80;99.90;;;;;;5016005;28;20301;-68
2022/10/15 02:59:41;;;;;;;19.17;15.67;;;12.70;99.90;;;;;;5027253;28;20212;-67
2022/10/15 03:02:09;;;;;;;18.23;16.23;;;12.60;6.80;;;;;;5032037;28;20735;-67
2022/10/15 03:04:41;;;;;;;17.80;15.27;;;12.60;95.50;;;;;;5030660;28;20224;-67
2022/10/15 03:07:08;;;;;;;18.10;16.20;;;12.50;59.40;;;;;;5000578;28;20229;-67
2022/10/15 03:09:35;;;;;;;18.63;15.90;;;12.50;99.90;;;;;;5000399;28;20209;-68
2022/10/15 03:12:03;;;;;;;18.90;15.97;;;12.40;99.90;;;;;;5000079;28;20293;-69
2022/10/15 03:14:32;;;;;;;18.53;16.53;;;12.40;1.00;;;;;;5013951;28;20201;-68
2022/10/15 03:17:00;;;;;;;19.27;16.13;;;12.30;1.00;;;;;;5014649;28;20684;-68
2022/10/15 03:19:27;;;;;;;18.47;16.43;;;12.20;1.00;;;;;;5014578;28;20200;-68
2022/10/15 03:21:54;;;;;;;21.77;17.73;;;12.10;1.00;;;;;;4997392;28;20300;-66
2022/10/15 03:24:21;;;;;;;18.80;16.80;;;12.20;99.90;;;;;;5013386;28;20775;-65
2022/10/15 03:26:48;;;;;;;21.40;17.33;;;12.10;1.00;;;;;;5014526;28;20694;-68
2022/10/15 03:29:15;;;;;;;22.43;18.00;;;12.20;1.00;;;;;;5014213;28;20201;-66
2022/10/15 03:31:52;;;;;;;21.23;17.57;;;12.30;99.90;;;;;;5013550;28;20197;-68
2022/10/15 03:34:19;;;;;;;22.80;18.13;;;12.30;99.90;;;;;;5005111;28;20660;-69
2022/10/15 03:36:47;;;;;;;20.40;18.03;;;12.30;99.90;;;;;;5028189;28;20762;-68
2022/10/15 03:39:14;;;;;;;24.73;19.53;;;12.30;1.00;;;;;;5031555;28;20690;-67
2022/10/15 03:41:41;;;;;;;22.93;19.17;;;12.20;1.00;;;;;;5003738;28;20202;-68
2022/10/15 03:44:21;;;;;;;24.50;18.30;;;12.10;1.00;;;;;;5012855;28;20201;-68
2022/10/15 03:46:58;;;;;;;29.37;20.97;;;12.10;1.00;;;;;;5015611;28;20208;-67
2022/10/15 03:49:36;;;;;;;36.97;25.57;;;12.10;99.90;;;;;;4994732;28;20251;-67
2022/10/15 03:52:05;;;;;;;42.57;26.67;;;12.30;75.90;;;;;;5014454;28;20221;-68
2022/10/15 03:54:32;;;;;;;47.10;30.13;;;12.40;1.00;;;;;;5030759;28;20190;-67
2022/10/15 03:56:59;;;;;;;53.53;33.20;;;12.60;1.00;;;;;;5014791;28;20201;-69
2022/10/15 03:59:31;;;;;;;69.10;38.30;;;12.70;1.00;;;;;;5013318;28;20197;-68
2022/10/15 04:02:01;;;;;;;65.70;38.07;;;12.90;27.90;;;;;;5028558;28;20201;-69
2022/10/15 04:04:29;;;;;;;82.13;42.30;;;13.00;1.00;;;;;;5005187;28;20224;-69
2022/10/15 04:06:57;;;;;;;106.87;46.23;;;13.00;1.00;;;;;;5029442;28;20772;-69
2022/10/15 04:09:24;;;;;;;107.63;49.00;;;13.10;1.00;;;;;;5012276;28;20569;-70
2022/10/15 04:11:55;;;;;;;97.77;48.27;;;13.10;1.00;;;;;;4979778;28;20216;-68
2022/10/15 04:14:23;;;;;;;100.37;48.73;;;13.20;99.90;;;;;;4998196;28;20194;-69
2022/10/15 04:16:50;;;;;;;93.77;46.00;;;13.20;1.00;;;;;;5030018;28;20960;-69
2022/10/15 04:19:21;;;;;;;94.63;44.97;;;13.20;1.00;;;;;;5031101;28;20578;-67
2022/10/15 04:21:59;;;;;;;85.50;43.97;;;13.20;99.90;;;;;;4998859;28;20201;-68
2022/10/15 04:24:40;;;;;;;84.73;43.43;;;13.20;99.90;;;;;;5028786;28;20225;-68
2022/10/15 04:27:07;;;;;;;78.77;42.20;;;13.10;99.90;;;;;;4999574;28;20228;-68
2022/10/15 04:29:36;;;;;;;88.60;45.43;;;13.10;1.00;;;;;;4981421;28;20226;-65
2022/10/15 04:32:16;;;;;;;92.03;45.77;;;13.10;1.00;;;;;;4995393;28;20260;-65
2022/10/15 04:34:46;;;;;;;90.47;46.43;;;13.10;1.00;;;;;;4998688;28;20206;-64
2022/10/15 04:37:14;;;;;;;95.23;44.37;;;13.10;1.00;;;;;;4999823;28;20197;-67
2022/10/15 04:39:41;;;;;;;83.80;43.90;;;13.20;99.90;;;;;;5030743;28;20217;-67
2022/10/15 04:42:11;;;;;;;92.10;45.23;;;13.20;99.90;;;;;;5013745;28;20209;-66
2022/10/15 04:44:39;;;;;;;78.43;43.87;;;13.20;99.90;;;;;;4998320;28;20280;-67
2022/10/15 04:47:06;;;;;;;76.33;42.27;;;13.30;99.90;;;;;;5029103;28;20337;-67
2022/10/15 04:49:52;;;;;;;69.80;39.73;;;13.30;1.00;;;;;;4996119;28;20216;-67
2022/10/15 04:52:39;;;;;;;71.20;39.83;;;13.30;1.00;;;;;;5001117;28;20245;-67
2022/10/15 04:55:10;;;;;;;65.43;39.10;;;13.30;1.00;;;;;;5029173;28;20626;-66
2022/10/15 04:57:38;;;;;;;60.90;36.87;;;13.20;1.00;;;;;;5010358;28;20297;-66
2022/10/15 05:00:05;;;;;;;58.97;34.23;;;13.20;1.00;;;;;;4998084;28;20197;-65
2022/10/15 05:02:32;;;;;;;57.00;34.33;;;13.20;1.00;;;;;;4996183;28;20208;-66
2022/10/15 05:05:15;;;;;;;62.63;36.13;;;13.20;1.00;;;;;;5002366;28;20309;-64
2022/10/15 05:07:49;;;;;;;51.10;32.90;;;13.20;1.00;;;;;;5003377;28;20699;-64
2022/10/15 05:10:17;;;;;;;53.23;32.70;;;13.10;3.80;;;;;;5027968;28;20838;-63
2022/10/15 05:12:44;;;;;;;55.03;32.27;;;13.20;21.40;;;;;;4994698;28;20271;-64
2022/10/15 05:15:12;;;;;;;47.83;32.13;;;13.20;59.30;;;;;;5029187;28;20201;-68
2022/10/15 05:17:39;;;;;;;50.27;31.63;;;13.30;1.00;;;;;;5003114;28;20663;-68
2022/10/15 05:20:08;;;;;;;51.80;32.10;;;13.30;1.00;;;;;;5011532;28;20775;-67
2022/10/15 05:22:35;;;;;;;51.80;33.20;;;13.20;1.00;;;;;;5002135;28;20198;-68
2022/10/15 05:25:02;;;;;;;51.60;32.50;;;13.20;1.00;;;;;;4995738;28;20234;-67
2022/10/15 05:27:34;;;;;;;46.43;31.03;;;13.20;99.90;;;;;;5002480;28;20252;-66
2022/10/15 05:30:04;;;;;;;49.23;31.30;;;13.20;99.90;;;;;;5026460;28;20208;-67
2022/10/15 05:32:36;;;;;;;48.17;30.10;;;13.20;99.90;;;;;;4979675;28;20194;-65
2022/10/15 05:35:04;;;;;;;48.23;32.73;;;13.20;99.90;;;;;;5011154;28;20212;-65
2022/10/15 05:37:50;;;;;;;46.43;30.23;;;13.20;62.90;;;;;;4997566;28;20546;-66
2022/10/15 05:40:17;;;;;;;56.27;34.00;;;13.20;12.20;;;;;;5029833;28;20201;-67
2022/10/15 05:43:00;;;;;;;51.80;33.83;;;13.20;1.00;;;;;;5031093;28;20699;-67
2022/10/15 05:45:27;;;;;;;50.10;32.03;;;13.20;1.00;;;;;;4992652;28;20292;-65
2022/10/15 05:48:00;;;;;;;54.43;34.07;;;13.20;1.00;;;;;;5013439;28;20209;-65
2022/10/15 05:50:27;;;;;;;53.40;34.77;;;13.20;1.00;;;;;;4995477;28;20198;-66
2022/10/15 05:52:55;;;;;;;49.53;31.67;;;13.20;1.00;;;;;;5003647;28;20209;-65
2022/10/15 05:55:31;;;;;;;53.80;33.60;;;13.10;1.00;;;;;;5012336;28;20746;-67
2022/10/15 05:58:02;;;;;;;50.73;33.30;;;13.20;1.00;;;;;;4997929;28;20280;-66
2022/10/15 06:00:29;;;;;;;53.10;35.30;;;13.10;1.00;;;;;;4997374;28;20200;-67
2022/10/15 06:02:56;;;;;;;51.53;33.50;;;13.10;1.00;;;;;;4998611;28;20206;-67
2022/10/15 06:05:24;;;;;;;50.83;33.73;;;13.10;1.00;;;;;;5003536;28;20251;-66
2022/10/15 06:07:51;;;;;;;51.37;34.73;;;13.10;1.00;;;;;;4995502;28;20230;-66
2022/10/15 06:10:18;;;;;;;48.60;33.37;;;13.10;1.00;;;;;;4997323;28;20243;-66
2022/10/15 06:12:49;;;;;;;48.03;34.63;;;13.20;1.00;;;;;;4996548;28;20204;-67
2022/10/15 06:15:18;;;;;;;44.03;32.93;;;13.10;1.00;;;;;;4996620;28;20281;-67
2022/10/15 06:17:45;;;;;;;46.17;32.43;;;13.10;99.90;;;;;;5012251;28;20201;-66
2022/10/15 06:20:12;;;;;;;47.43;34.27;;;13.00;95.60;;;;;;4998742;28;20205;-67
2022/10/15 06:22:39;;;;;;;47.33;33.27;;;12.90;1.00;;;;;;5008781;28;20212;-67
2022/10/15 06:25:07;;;;;;;52.70;35.63;;;12.90;1.00;;;;;;5016893;28;20205;-67
2022/10/15 06:27:34;;;;;;;51.27;34.80;;;12.90;1.00;;;;;;5013946;28;20212;-67
2022/10/15 06:30:02;;;;;;;52.33;34.93;;;13.00;1.00;;;;;;5018015;28;20209;-67
2022/10/15 06:32:29;;;;;;;50.17;34.97;;;13.10;1.00;;;;;;5001129;28;20201;-67
2022/10/15 06:34:56;;;;;;;47.70;33.67;;;13.20;1.00;;;;;;5034780;28;20375;-67
2022/10/15 06:37:23;;;;;;;45.33;32.67;;;13.40;99.90;;;;;;5017183;28;20334;-68
2022/10/15 06:39:54;;;;;;;46.13;31.37;;;13.60;1.00;;;;;;5005813;28;20189;-67
2022/10/15 06:42:21;;;;;;;40.00;31.17;;;13.60;1.00;;;;;;5000715;28;20712;-68
2022/10/15 06:44:51;;;;;;;42.57;29.97;;;13.70;1.00;;;;;;5032129;28;20214;-67
2022/10/15 06:47:18;;;;;;;40.28;30.63;;;13.90;99.90;;;;;;4986183;28;20279;-66
2022/10/15 06:49:46;;;;;;;36.33;29.05;;;14.10;1.00;;;;;;5017074;28;20197;-67
2022/10/15 06:52:13;;;;;;;33.60;26.98;;;14.20;1.00;;;;;;5012565;28;20204;-68
2022/10/15 06:54:40;;;;;;;36.10;28.17;;;14.10;99.90;;;;;;5016776;28;20220;-66
2022/10/15 06:57:07;;;;;;;34.53;28.33;;;13.90;1.00;;;;;;5016326;28;20233;-66
2022/10/15 06:59:34;;;;;;;37.53;29.17;;;13.90;1.00;;;;;;5018235;28;20291;-66
2022/10/15 07:02:09;;;;;;;34.03;27.90;;;14.00;1.00;;;;;;5032289;28;21060;-66
2022/10/15 07:04:35;;;;;;;36.30;28.03;;;13.90;1.00;;;;;;5001194;28;20247;-66
2022/10/15 07:07:02;;;;;;;34.97;29.17;;;13.80;3.40;;;;;;5001630;28;20256;-66
2022/10/15 07:09:30;;;;;;;36.85;29.20;;;13.90;1.00;;;;;;5001318;28;20840;-67
2022/10/15 07:11:57;;;;;;;32.22;27.33;;;14.10;1.00;;;;;;5001403;28;20198;-67
2022/10/15 07:14:24;;;;;;;34.70;27.00;;;14.30;99.90;;;;;;5017980;28;20224;-66
2022/10/15 07:16:51;;;;;;;27.85;24.85;;;14.60;74.20;;;;;;5016940;28;20217;-66
2022/10/15 07:19:19;;;;;;;32.10;25.15;;;14.90;1.00;;;;;;5034188;28;20205;-67
2022/10/15 07:21:47;;;;;;;30.33;25.10;;;14.80;1.00;;;;;;5014373;28;20270;-67
2022/10/15 07:24:13;;;;;;;27.35;24.27;;;14.80;98.10;;;;;;5003313;28;20217;-67
2022/10/15 07:26:41;;;;;;;28.65;23.55;;;14.70;31.80;;;;;;5032069;28;20280;-67
2022/10/15 07:29:08;;;;;;;28.95;24.67;;;14.70;99.90;;;;;;5007709;28;20194;-67
2022/10/15 07:31:35;;;;;;;28.33;24.42;;;14.60;99.90;;;;;;5033832;28;20190;-67
2022/10/15 07:34:02;;;;;;;30.40;23.23;;;14.70;99.90;;;;;;5003832;28;20292;-65
2022/10/15 07:36:29;;;;;;;30.42;25.38;;;14.60;99.90;;;;;;4999807;28;20575;-66
2022/10/15 07:38:56;;;;;;;28.77;24.45;;;14.70;1.00;;;;;;5016707;28;20727;-66
2022/10/15 07:41:23;;;;;;;31.45;24.45;;;14.60;99.90;;;;;;5032389;28;20233;-66
2022/10/15 07:43:52;;;;;;;27.23;23.58;;;14.60;99.90;;;;;;5030765;28;20687;-67
2022/10/15 07:46:19;;;;;;;27.65;24.35;;;14.70;99.90;;;;;;5000439;28;20667;-67
2022/10/15 07:48:54;;;;;;;32.10;25.85;;;14.90;1.00;;;;;;5030538;28;20559;-67
2022/10/15 07:51:21;;;;;;;33.15;26.08;;;14.70;28.00;;;;;;4999331;28;20244;-66
2022/10/15 07:53:48;;;;;;;36.65;28.70;;;14.80;99.90;;;;;;5000671;28;20228;-66
2022/10/15 07:56:15;;;;;;;31.52;23.95;;;14.80;99.90;;;;;;5006423;28;20425;-67
2022/10/15 07:58:50;;;;;;;33.05;25.13;;;15.00;1.00;;;;;;5000007;28;20691;-66
2022/10/15 08:01:20;;;;;;;25.75;22.60;;;15.40;99.90;;;;;;5030635;28;20202;-66
2022/10/15 08:03:50;;;;;;;29.60;23.77;;;15.60;86.30;;;;;;5007915;28;20217;-66
2022/10/15 08:06:18;;;;;;;32.60;25.90;;;16.40;1.00;;;;;;4999161;28;20228;-66
2022/10/15 08:08:45;;;;;;;25.13;21.98;;;16.70;1.00;;;;;;5031960;28;20208;-66
2022/10/15 08:11:13;;;;;;;30.77;25.55;;;16.80;99.90;;;;;;5001117;28;20291;-66
2022/10/15 08:13:42;;;;;;;26.42;22.38;;;17.00;1.00;;;;;;5027732;28;20208;-66
2022/10/15 08:16:11;;;;;;;25.58;22.15;;;17.20;99.90;;;;;;4998898;28;20205;-66
2022/10/15 08:18:38;;;;;;;28.05;23.58;;;17.00;99.90;;;;;;4999409;28;20198;-65
2022/10/15 08:21:07;;;;;;;27.92;23.67;;;17.00;99.90;;;;;;4996482;28;20201;-66
2022/10/15 08:23:35;;;;;;;26.13;22.33;;;17.20;99.90;;;;;;5000072;28;20658;-68
2022/10/15 08:26:02;;;;;;;26.70;22.50;;;17.50;99.90;;;;;;4998346;28;20261;-70
2022/10/15 08:28:31;;;;;;;30.10;23.42;;;17.40;99.90;;;;;;5031679;28;20728;-69
2022/10/15 08:31:00;;;;;;;26.02;22.52;;;17.20;99.90;;;;;;4998427;28;20711;-69
2022/10/15 08:33:36;;;;;;;29.20;23.25;;;17.40;99.90;;;;;;5020072;28;20208;-68
2022/10/15 08:36:06;;;;;;;29.17;24.90;;;17.40;99.90;;;;;;5014764;28;20229;-69
2022/10/15 08:38:34;;;;;;;28.92;23.75;;;17.70;99.90;;;;;;5000377;28;20611;-68
2022/10/15 08:41:04;;;;;;;33.28;24.50;;;17.80;99.90;;;;;;5000837;28;20651;-69
2022/10/15 08:43:38;;;;;;;26.02;22.80;;;17.90;99.90;;;;;;5029214;28;20274;-69
2022/10/15 08:46:25;;;;;;;28.33;23.25;;;18.00;99.90;;;;;;4995915;28;20196;-70
2022/10/15 08:48:55;;;;;;;25.40;19.60;;;20.60;1.00;;;;;;4996742;28;20189;-69
2022/10/15 08:51:25;;;;;;;27.80;22.73;;;24.40;1.00;;;;;;5012462;28;20209;-69
2022/10/15 08:53:56;;;;;;;25.40;21.70;;;25.20;1.00;;;;;;4999766;28;20189;-66
2022/10/15 08:56:29;;;;;;;25.70;20.00;;;26.90;1.00;;;;;;4979804;28;20209;-66
2022/10/15 08:59:35;;;;;;;20.13;18.13;;;25.60;1.00;;;;;;4999016;28;20675;-70
2022/10/15 09:02:15;;;;;;;21.13;17.55;;;23.10;1.00;;;;;;5029984;28;20235;-70
2022/10/15 09:05:07;;;;;;;25.60;21.38;;;22.30;1.00;;;;;;5012107;28;20241;-69
2022/10/15 09:07:43;;;;;;;19.88;17.83;;;21.90;1.00;;;;;;5003253;28;20221;-68
2022/10/15 09:10:30;;;;;;;21.80;19.45;;;23.10;1.00;;;;;;5030198;28;20198;-68
2022/10/15 09:13:15;;;;;;;22.95;19.27;;;21.70;1.00;;;;;;5003034;28;20197;-68
2022/10/15 09:15:51;;;;;;;19.48;17.48;;;22.50;1.00;;;;;;5012754;28;20209;-69
2022/10/15 09:18:24;;;;;;;21.58;17.20;;;21.00;1.00;;;;;;4998736;28;20197;-68
2022/10/15 09:20:53;;;;;;;19.92;17.80;;;21.40;1.00;;;;;;4999554;28;20230;-69
2022/10/15 09:23:29;;;;;;;19.63;17.50;;;22.50;1.00;;;;;;5013859;28;20296;-70
2022/10/15 09:26:04;;;;;;;24.52;17.73;;;23.80;1.00;;;;;;5030147;28;20227;-69
2022/10/15 09:28:43;;;;;;;18.65;13.77;;;26.60;1.00;;;;;;5030428;28;20611;-68
2022/10/15 09:31:14;;;;;;;17.08;13.98;;;28.10;1.00;;;;;;4993278;28;20264;-69
2022/10/15 09:33:47;;;;;;;15.50;13.70;;;28.80;1.00;;;;;;5014631;28;20204;-69
2022/10/15 09:36:26;;;;;;;12.70;10.52;;;30.40;1.00;;;;;;5012914;28;20201;-68
2022/10/15 09:39:14;;;;;;;9.25;8.38;;;26.20;1.00;;;;;;5032395;28;20217;-68
2022/10/15 09:42:08;;;;;;;9.70;8.70;;;23.50;1.00;;;;;;5013892;28;20216;-70
2022/10/15 09:44:40;;;;;;;8.15;7.25;;;26.20;1.00;;;;;;4999283;28;20201;-69
2022/10/15 09:47:33;;;;;;;9.60;8.70;;;27.50;1.00;;;;;;5014625;28;20201;-69
2022/10/15 09:50:03;;;;;;;8.52;7.72;;;24.00;1.00;;;;;;4999515;28;20208;-68
2022/10/15 09:52:51;;;;;;;8.65;7.85;;;23.90;1.00;;;;;;4999818;28;20607;-69
2022/10/15 09:55:22;;;;;;;7.85;7.05;;;23.60;1.00;;;;;;5001236;28;20225;-68
2022/10/15 09:57:53;;;;;;;8.60;7.30;;;24.60;1.00;;;;;;5016362;28;20212;-68
2022/10/15 10:00:21;;;;;;;6.70;5.75;;;24.80;1.00;;;;;;4998146;28;20203;-69
2022/10/15 10:03:06;;;;;;;6.75;6.05;;;24.00;1.00;;;;;;5032649;28;20201;-69
2022/10/15 10:05:36;;;;;;;5.50;4.90;;;22.30;1.00;;;;;;5001163;28;20242;-72
2022/10/15 10:08:21;;;;;;;7.93;5.82;;;22.10;1.00;;;;;;5000988;28;20212;-68
2022/10/15 10:11:00;;;;;;;5.70;4.97;;;21.10;1.00;;;;;;5028059;28;20215;-71
2022/10/15 10:13:41;;;;;;;5.13;4.63;;;22.30;1.00;;;;;;5031872;28;20195;-70
2022/10/15 10:16:10;;;;;;;6.32;4.65;;;23.40;1.00;;;;;;4999786;28;20209;-68
2022/10/15 10:18:38;;;;;;;4.30;3.80;;;22.70;1.00;;;;;;5029014;28;20196;-69
2022/10/15 10:21:27;;;;;;;4.50;4.10;;;22.40;1.00;;;;;;4980025;28;20582;-68
2022/10/15 10:23:54;;;;;;;5.13;4.72;;;21.90;1.00;;;;;;5000678;28;20296;-68
2022/10/15 10:26:21;;;;;;;4.25;3.85;;;22.70;1.00;;;;;;5013717;28;20884;-67
2022/10/15 10:28:53;;;;;;;6.10;4.20;;;23.30;1.00;;;;;;5000845;28;20205;-68
2022/10/15 10:31:34;;;;;;;4.32;3.88;;;23.40;1.00;;;;;;5031991;28;20196;-67
2022/10/15 10:34:02;;;;;;;3.40;3.10;;;24.30;1.00;;;;;;5001633;28;20196;-67
2022/10/15 10:36:33;;;;;;;3.47;3.17;;;27.20;1.00;;;;;;5000736;28;20200;-66
2022/10/15 10:39:19;;;;;;;3.13;2.80;;;28.80;1.00;;;;;;5000888;28;20660;-68
2022/10/15 10:41:54;;;;;;;4.28;2.67;;;28.00;1.00;;;;;;5001953;28;20192;-65
2022/10/15 10:44:34;;;;;;;2.65;2.45;;;26.60;1.00;;;;;;5031967;28;20315;-68
2022/10/15 10:47:10;;;;;;;3.50;2.47;;;27.20;1.00;;;;;;5000248;28;20197;-64
2022/10/15 10:49:43;;;;;;;2.33;2.13;;;25.90;1.00;;;;;;5015436;28;20529;-67
2022/10/15 10:52:27;;;;;;;2.30;2.10;;;23.60;1.00;;;;;;5014023;28;20216;-65
2022/10/15 10:55:12;;;;;;;1.70;1.42;;;23.10;1.00;;;;;;5000198;28;20313;-65
2022/10/15 10:57:47;;;;;;;2.05;1.40;;;22.10;1.00;;;;;;4999533;28;20226;-65
2022/10/15 11:00:29;;;;;;;2.10;1.80;;;22.00;1.00;;;;;;4998585;28;20280;-69
2022/10/15 11:02:56;;;;;;;1.38;1.20;;;22.30;1.00;;;;;;4999350;28;20217;-67
2022/10/15 11:05:29;;;;;;;3.40;1.50;;;22.30;1.00;;;;;;4999355;28;20213;-68
2022/10/15 11:08:05;;;;;;;2.47;1.05;;;23.10;1.00;;;;;;4997027;28;20291;-70
2022/10/15 11:10:49;;;;;;;2.13;1.02;;;22.30;1.00;;;;;;4999646;28;20703;-66
2022/10/15 11:13:41;;;;;;;0.90;0.90;;;21.60;1.00;;;;;;5018702;28;20197;-67
2022/10/15 11:16:36;;;;;;;3.13;1.10;;;21.50;1.00;;;;;;5002480;28;20291;-67
2022/10/15 11:19:21;;;;;;;2.20;0.95;;;20.80;1.00;;;;;;5005458;28;20251;-67
2022/10/15 11:22:22;;;;;;;1.48;1.10;;;20.60;1.00;;;;;;5001883;28;20193;-70
2022/10/15 11:24:58;;;;;;;0.98;0.90;;;20.10;1.00;;;;;;5000273;28;20217;-69
2022/10/15 11:27:45;;;;;;;1.48;1.00;;;20.00;1.00;;;;;;5001840;28;20708;-70
2022/10/15 11:30:18;;;;;;;1.23;1.08;;;20.40;1.00;;;;;;5015831;28;20193;-70
2022/10/15 11:32:57;;;;;;;1.35;0.93;;;20.90;1.00;;;;;;5000778;28;20203;-70
2022/10/15 11:35:53;;;;;;;1.20;0.68;;;22.30;1.00;;;;;;5015839;28;20950;-68
2022/10/15 11:38:32;;;;;;;1.40;0.90;;;23.40;1.00;;;;;;5003562;28;20212;-69
2022/10/15 11:41:38;;;;;;;1.83;0.80;;;23.50;1.00;;;;;;5018066;28;20224;-69
2022/10/15 11:44:24;;;;;;;0.60;0.60;;;22.00;1.00;;;;;;5019605;28;20303;-69
2022/10/15 11:47:15;;;;;;;1.00;0.70;;;21.20;1.00;;;;;;5000957;28;20228;-69
2022/10/15 11:49:51;;;;;;;2.20;0.70;;;20.90;1.00;;;;;;5001791;28;20529;-69
2022/10/15 11:52:42;;;;;;;1.23;0.70;;;20.60;1.00;;;;;;5001472;28;20259;-69
2022/10/15 11:55:25;;;;;;;2.30;0.85;;;20.10;1.00;;;;;;5002428;28;20208;-69
2022/10/15 11:58:01;;;;;;;2.25;0.70;;;19.90;1.00;;;;;;5001098;28;20194;-70
2022/10/15 12:00:39;;;;;;;2.10;0.50;;;19.70;1.00;;;;;;5034009;28;20224;-68
2022/10/15 12:03:21;;;;;;;0.70;0.70;;;19.20;48.30;;;;;;5001690;28;20288;-68
2022/10/15 12:05:51;;;;;;;0.80;0.80;;;18.80;99.90;;;;;;5001354;28;20216;-69
2022/10/15 12:08:20;;;;;;;1.67;0.93;;;18.60;1.00;;;;;;5012767;28;20315;-69
2022/10/15 12:11:04;;;;;;;0.88;0.70;;;18.60;1.00;;;;;;4998711;28;20677;-68
2022/10/15 12:13:43;;;;;;;1.63;1.52;;;18.60;99.90;;;;;;4999235;28;20201;-69
2022/10/15 12:16:33;;;;;;;6.40;1.42;;;18.60;99.90;;;;;;4998098;28;20279;-69
2022/10/15 12:19:25;;;;;;;1.40;0.90;;;18.60;99.90;;;;;;5000353;28;20198;-70
2022/10/15 12:21:55;;;;;;;1.95;1.63;;;19.10;99.90;;;;;;5015285;28;20514;-70
2022/10/15 12:24:40;;;;;;;2.13;0.93;;;19.30;99.90;;;;;;5001908;28;20204;-71
2022/10/15 12:27:35;;;;;;;1.23;0.80;;;19.40;99.90;;;;;;4984685;28;20456;-68
2022/10/15 12:30:02;;;;;;;1.15;0.80;;;19.40;99.90;;;;;;5015570;28;21952;-70
2022/10/15 12:32:47;;;;;;;2.92;1.00;;;19.70;83.70;;;;;;5017060;28;20812;-70
2022/10/15 12:35:14;;;;;;;1.10;0.70;;;19.70;82.60;;;;;;4999798;28;20267;-68
2022/10/15 12:37:44;;;;;;;1.10;0.80;;;19.60;58.00;;;;;;5017435;28;20227;-69
2022/10/15 12:40:30;;;;;;;3.72;0.98;;;19.30;99.90;;;;;;5017651;28;20743;-70
2022/10/15 12:43:00;;;;;;;0.90;0.80;;;19.20;99.90;;;;;;5015608;28;20614;-69
2022/10/15 12:45:36;;;;;;;0.93;0.80;;;19.30;99.90;;;;;;5020304;28;20212;-65
2022/10/15 12:48:19;;;;;;;0.95;0.85;;;19.20;99.90;;;;;;5032507;28;20207;-66
2022/10/15 12:50:46;;;;;;;0.93;0.80;;;19.20;87.00;;;;;;5001422;28;20651;-65
2022/10/15 12:53:28;;;;;;;1.55;1.00;;;19.20;57.20;;;;;;5003250;28;20228;-65
2022/10/15 12:56:23;;;;;;;0.63;0.63;;;19.10;42.30;;;;;;5017533;28;20193;-66
2022/10/15 12:58:52;;;;;;;0.77;0.77;;;19.10;97.60;;;;;;5003304;28;20214;-66
2022/10/15 13:01:19;;;;;;;1.00;0.90;;;19.20;49.00;;;;;;5033769;28;20233;-66
2022/10/15 13:03:50;;;;;;;1.63;0.70;;;19.30;43.20;;;;;;5017296;28;20224;-65
2022/10/15 13:06:20;;;;;;;2.78;0.60;;;19.30;26.10;;;;;;5009637;28;20774;-66
2022/10/15 13:08:53;;;;;;;0.82;0.68;;;19.30;5.80;;;;;;5002387;28;20201;-66
2022/10/15 13:11:43;;;;;;;0.77;0.70;;;19.30;32.50;;;;;;5012684;28;20197;-68